createdAt,value
2022-09-10T00:00:55.214Z,15.50
2022-09-10T00:03:23.426Z,15.50
2022-09-10T00:05:50.941Z,15.50
2022-09-10T00:08:19.366Z,15.50
2022-09-10T00:10:51.943Z,15.40
2022-09-10T00:13:21.991Z,15.50
2022-09-10T00:15:52.217Z,15.40
2022-09-10T00:18:22.126Z,15.50
2022-09-10T00:20:54.067Z,15.50
2022-09-10T00:23:25.932Z,15.50
2022-09-10T00:25:57.914Z,15.50
2022-09-10T00:28:27.117Z,15.50
2022-09-10T00:30:55.387Z,15.50
2022-09-10T00:33:23.514Z,15.50
2022-09-10T00:35:51.401Z,15.60
2022-09-10T00:38:18.659Z,15.60
2022-09-10T00:40:46.004Z,15.60
2022-09-10T00:43:21.946Z,15.60
2022-09-10T00:45:54.814Z,15.60
2022-09-10T00:48:32.030Z,15.60
2022-09-10T00:51:01.901Z,15.60
2022-09-10T00:53:29.430Z,15.60
2022-09-10T00:55:59.952Z,15.60
2022-09-10T00:58:28.664Z,15.60
2022-09-10T01:01:01.485Z,15.70
2022-09-10T01:03:30.183Z,15.70
2022-09-10T01:05:57.455Z,15.70
2022-09-10T01:08:24.642Z,15.60
2022-09-10T01:11:01.592Z,15.60
2022-09-10T01:14:05.392Z,15.60
2022-09-10T01:17:03.653Z,15.70
2022-09-10T01:19:49.173Z,15.70
2022-09-10T01:22:15.968Z,15.60
2022-09-10T01:25:04.992Z,15.70
2022-09-10T01:27:43.242Z,15.70
2022-09-10T01:30:12.960Z,15.70
2022-09-10T01:33:10.441Z,15.70
2022-09-10T01:35:44.966Z,15.70
2022-09-10T01:38:32.793Z,15.80
2022-09-10T01:40:59.874Z,15.80
2022-09-10T01:43:27.370Z,15.90
2022-09-10T01:46:21.724Z,15.80
2022-09-10T01:49:08.208Z,15.80
2022-09-10T01:51:56.397Z,15.80
2022-09-10T01:54:47.105Z,15.80
2022-09-10T01:57:36.803Z,15.80
2022-09-10T02:00:12.897Z,15.80
2022-09-10T02:02:52.873Z,15.80
2022-09-10T02:05:23.427Z,15.70
2022-09-10T02:07:55.875Z,15.70
2022-09-10T02:10:23.697Z,15.70
2022-09-10T02:12:50.599Z,15.70
2022-09-10T02:15:19.224Z,15.70
2022-09-10T02:17:47.211Z,15.70
2022-09-10T02:20:14.783Z,15.70
2022-09-10T02:22:50.992Z,15.70
2022-09-10T02:25:17.928Z,15.70
2022-09-10T02:27:44.983Z,15.70
2022-09-10T02:30:12.285Z,15.70
2022-09-10T02:32:39.141Z,15.70
2022-09-10T02:35:06.461Z,15.70
2022-09-10T02:37:33.253Z,15.70
2022-09-10T02:40:00.093Z,15.70
2022-09-10T02:42:27.080Z,15.70
2022-09-10T02:44:53.994Z,15.60
2022-09-10T02:47:20.873Z,15.70
2022-09-10T02:49:47.714Z,15.60
2022-09-10T02:52:14.571Z,15.60
2022-09-10T02:54:41.393Z,15.60
2022-09-10T02:57:08.298Z,15.60
2022-09-10T02:59:35.146Z,15.60
2022-09-10T03:02:02.220Z,15.60
2022-09-10T03:04:29.067Z,15.60
2022-09-10T03:06:55.867Z,15.60
2022-09-10T03:09:23.157Z,15.70
2022-09-10T03:11:51.280Z,15.70
2022-09-10T03:14:22.285Z,15.70
2022-09-10T03:16:49.801Z,15.80
2022-09-10T03:19:17.520Z,15.70
2022-09-10T03:21:47.551Z,15.70
2022-09-10T03:24:15.499Z,15.80
2022-09-10T03:26:44.522Z,15.80
2022-09-10T03:29:12.447Z,15.80
2022-09-10T03:31:39.803Z,15.80
2022-09-10T03:34:06.936Z,15.80
2022-09-10T03:36:33.731Z,15.80
2022-09-10T03:39:00.897Z,15.80
2022-09-10T03:41:29.140Z,15.80
2022-09-10T03:43:57.496Z,15.80
2022-09-10T03:46:24.830Z,15.80
2022-09-10T03:48:55.230Z,15.80
2022-09-10T03:51:23.334Z,15.70
2022-09-10T03:53:50.215Z,15.80
2022-09-10T03:56:20.069Z,15.80
2022-09-10T03:58:49.215Z,15.80
2022-09-10T04:01:17.549Z,15.70
2022-09-10T04:03:44.555Z,15.80
2022-09-10T04:06:12.930Z,15.80
2022-09-10T04:08:40.539Z,15.70
2022-09-10T04:11:07.392Z,15.70
2022-09-10T04:13:34.203Z,15.60
2022-09-10T04:16:01.470Z,15.60
2022-09-10T04:18:29.112Z,15.70
2022-09-10T04:20:56.475Z,15.70
2022-09-10T04:23:23.440Z,15.70
2022-09-10T04:25:50.820Z,15.70
2022-09-10T04:28:18.146Z,15.60
2022-09-10T04:30:45.321Z,15.70
2022-09-10T04:33:12.194Z,15.70
2022-09-10T04:35:39.630Z,15.70
2022-09-10T04:38:08.085Z,15.60
2022-09-10T04:40:35.119Z,15.60
2022-09-10T04:43:02.293Z,15.60
2022-09-10T04:45:29.654Z,15.60
2022-09-10T04:47:57.036Z,15.60
2022-09-10T04:50:23.803Z,15.60
2022-09-10T04:52:50.613Z,15.50
2022-09-10T04:55:17.465Z,15.50
2022-09-10T04:57:44.741Z,15.50
2022-09-10T05:00:12.436Z,15.60
2022-09-10T05:02:39.376Z,15.50
2022-09-10T05:05:07.034Z,15.50
2022-09-10T05:07:33.791Z,15.40
2022-09-10T05:10:00.580Z,15.50
2022-09-10T05:12:27.404Z,15.50
2022-09-10T05:14:54.780Z,15.50
2022-09-10T05:17:21.629Z,15.50
2022-09-10T05:19:48.550Z,15.50
2022-09-10T05:22:15.955Z,15.50
2022-09-10T05:24:43.141Z,15.50
2022-09-10T05:27:09.963Z,15.40
2022-09-10T05:29:36.798Z,15.40
2022-09-10T05:32:03.880Z,15.40
2022-09-10T05:34:30.665Z,15.40
2022-09-10T05:36:57.440Z,15.40
2022-09-10T05:39:24.279Z,15.50
2022-09-10T05:41:51.082Z,15.40
2022-09-10T05:44:18.268Z,15.40
2022-09-10T05:46:45.103Z,15.50
2022-09-10T05:49:13.134Z,15.40
2022-09-10T05:51:40.090Z,15.40
2022-09-10T05:54:06.968Z,15.40
2022-09-10T05:56:34.839Z,15.50
2022-09-10T05:59:02.605Z,15.50
2022-09-10T06:01:32.062Z,15.50
2022-09-10T06:03:59.665Z,15.50
2022-09-10T06:06:28.269Z,15.60
2022-09-10T06:08:56.117Z,15.60
2022-09-10T06:11:23.589Z,15.70
2022-09-10T06:13:50.555Z,15.90
2022-09-10T06:16:17.832Z,15.90
2022-09-10T06:18:44.962Z,15.90
2022-09-10T06:21:19.407Z,16.00
2022-09-10T06:23:46.565Z,16.10
2022-09-10T06:26:17.116Z,16.20
2022-09-10T06:28:44.687Z,16.30
2022-09-10T06:31:16.999Z,16.30
2022-09-10T06:33:44.649Z,16.30
2022-09-10T06:36:11.512Z,16.40
2022-09-10T06:38:38.516Z,16.40
2022-09-10T06:41:08.045Z,16.50
2022-09-10T06:43:38.718Z,16.60
2022-09-10T06:46:50.775Z,16.60
2022-09-10T06:49:07.279Z,16.70
2022-09-10T06:51:34.213Z,16.80
2022-09-10T06:54:02.773Z,16.70
2022-09-10T06:56:33.743Z,16.60
2022-09-10T06:59:02.599Z,16.60
2022-09-10T07:01:29.748Z,16.60
2022-09-10T07:03:59.362Z,16.60
2022-09-10T07:06:27.537Z,16.70
2022-09-10T07:08:58.316Z,16.80
2022-09-10T07:11:28.179Z,16.80
2022-09-10T07:13:55.153Z,16.80
2022-09-10T07:16:24.924Z,17.00
2022-09-10T07:18:54.642Z,17.10
2022-09-10T07:21:23.362Z,17.10
2022-09-10T07:23:54.823Z,17.00
2022-09-10T07:26:21.856Z,17.00
2022-09-10T07:28:49.008Z,17.20
2022-09-10T07:31:17.431Z,17.20
2022-09-10T07:33:44.518Z,17.10
2022-09-10T07:36:15.113Z,17.10
2022-09-10T07:38:42.448Z,17.10
2022-09-10T07:41:11.436Z,17.10
2022-09-10T07:43:43.080Z,17.20
2022-09-10T07:46:20.963Z,17.30
2022-09-10T07:48:48.778Z,17.30
2022-09-10T07:51:19.267Z,17.40
2022-09-10T07:53:50.426Z,17.50
2022-09-10T07:56:17.967Z,17.60
2022-09-10T07:58:44.921Z,17.50
2022-09-10T08:01:12.951Z,17.70
2022-09-10T08:03:40.608Z,17.70
2022-09-10T08:06:09.191Z,17.70
2022-09-10T08:08:38.896Z,17.80
2022-09-10T08:11:14.491Z,17.80
2022-09-10T08:13:45.401Z,17.90
2022-09-10T08:16:15.284Z,18.00
2022-09-10T08:18:43.730Z,18.10
2022-09-10T08:21:11.126Z,18.40
2022-09-10T08:23:39.771Z,18.70
2022-09-10T08:26:08.411Z,18.60
2022-09-10T08:28:38.551Z,18.80
2022-09-10T08:31:08.071Z,19.00
2022-09-10T08:33:36.604Z,19.10
2022-09-10T08:36:04.825Z,19.30
2022-09-10T08:38:40.262Z,19.10
2022-09-10T08:41:28.471Z,19.10
2022-09-10T08:44:04.121Z,19.20
2022-09-10T08:46:37.247Z,19.00
2022-09-10T08:49:09.219Z,19.00
2022-09-10T08:51:45.053Z,18.70
2022-09-10T08:54:25.983Z,18.70
2022-09-10T08:56:58.385Z,18.70
2022-09-10T08:59:32.645Z,18.60
2022-09-10T09:02:47.122Z,18.80
2022-09-10T09:05:26.022Z,18.80
2022-09-10T09:07:53.501Z,18.90
2022-09-10T09:10:20.413Z,18.90
2022-09-10T09:13:20.160Z,18.80
2022-09-10T09:16:04.178Z,18.70
2022-09-10T09:18:52.829Z,18.50
2022-09-10T09:21:52.796Z,18.30
2022-09-10T09:24:24.145Z,18.20
2022-09-10T09:27:09.874Z,18.10
2022-09-10T09:30:10.143Z,18.10
2022-09-10T09:32:42.072Z,18.20
2022-09-10T09:35:27.273Z,17.90
2022-09-10T09:38:06.733Z,18.00
2022-09-10T09:40:49.702Z,17.90
2022-09-10T09:43:28.753Z,17.80
2022-09-10T09:45:55.878Z,17.80
2022-09-10T09:48:24.675Z,18.00
2022-09-10T09:51:00.425Z,18.00
2022-09-10T09:53:28.920Z,18.20
2022-09-10T09:55:58.786Z,18.30
2022-09-10T09:58:26.508Z,18.30
2022-09-10T10:01:05.839Z,18.30
2022-09-10T10:03:48.592Z,18.70
2022-09-10T10:06:16.768Z,18.60
2022-09-10T10:08:57.201Z,18.40
2022-09-10T10:11:47.183Z,18.40
2022-09-10T10:14:30.519Z,18.40
2022-09-10T10:17:00.860Z,18.30
2022-09-10T10:19:28.025Z,18.40
2022-09-10T10:21:54.934Z,18.40
2022-09-10T10:24:31.918Z,18.50
2022-09-10T10:26:59.613Z,18.50
2022-09-10T10:29:27.578Z,18.60
2022-09-10T10:31:56.134Z,18.80
2022-09-10T10:34:28.749Z,18.60
2022-09-10T10:37:14.711Z,18.80
2022-09-10T10:39:56.601Z,18.60
2022-09-10T10:42:59.276Z,18.60
2022-09-10T10:45:37.268Z,18.70
2022-09-10T10:48:19.074Z,18.70
2022-09-10T10:51:05.755Z,18.80
2022-09-10T10:53:57.401Z,18.90
2022-09-10T10:56:41.654Z,19.10
2022-09-10T10:59:11.402Z,19.10
2022-09-10T11:01:45.863Z,19.10
2022-09-10T11:04:34.515Z,19.00
2022-09-10T11:07:09.907Z,19.10
2022-09-10T11:09:43.229Z,19.20
2022-09-10T11:12:36.218Z,19.10
2022-09-10T11:15:31.174Z,19.00
2022-09-10T11:18:15.335Z,19.10
2022-09-10T11:20:47.043Z,19.10
2022-09-10T11:23:27.970Z,19.10
2022-09-10T11:26:04.872Z,19.20
2022-09-10T11:28:38.426Z,19.20
2022-09-10T11:31:32.407Z,19.40
2022-09-10T11:34:07.339Z,19.50
2022-09-10T11:36:51.377Z,19.30
2022-09-10T11:39:25.287Z,19.10
2022-09-10T11:41:54.916Z,19.20
2022-09-10T11:44:48.814Z,19.20
2022-09-10T11:47:37.374Z,19.20
2022-09-10T11:50:48.397Z,19.30
2022-09-10T11:53:17.762Z,19.20
2022-09-10T11:55:54.753Z,19.30
2022-09-10T11:58:50.481Z,19.20
2022-09-10T12:01:39.091Z,19.20
2022-09-10T12:04:39.992Z,19.30
2022-09-10T12:07:21.281Z,19.10
2022-09-10T12:09:59.872Z,19.10
2022-09-10T12:12:41.173Z,19.20
2022-09-10T12:15:31.016Z,19.10
2022-09-10T12:17:58.884Z,19.20
2022-09-10T12:20:53.902Z,19.20
2022-09-10T12:23:40.015Z,19.20
2022-09-10T12:26:20.634Z,19.10
2022-09-10T12:28:53.364Z,19.00
2022-09-10T12:31:21.772Z,18.80
2022-09-10T12:33:48.556Z,18.90
2022-09-10T12:36:35.320Z,19.10
2022-09-10T12:39:23.339Z,19.20
2022-09-10T12:41:50.186Z,19.20
2022-09-10T12:44:35.181Z,19.10
2022-09-10T12:47:17.030Z,19.20
2022-09-10T12:49:51.102Z,19.30
2022-09-10T12:52:32.137Z,19.40
2022-09-10T12:55:17.391Z,19.30
2022-09-10T12:57:47.331Z,19.50
2022-09-10T13:00:25.506Z,19.50
2022-09-10T13:02:58.379Z,19.70
2022-09-10T13:05:48.250Z,19.80
2022-09-10T13:08:27.093Z,19.90
2022-09-10T13:10:59.790Z,19.90
2022-09-10T13:13:41.510Z,19.60
2022-09-10T13:16:17.512Z,19.70
2022-09-10T13:18:46.692Z,19.50
2022-09-10T13:21:25.653Z,19.50
2022-09-10T13:23:56.948Z,19.20
2022-09-10T13:26:31.115Z,18.80
2022-09-10T13:29:01.423Z,18.30
2022-09-10T13:31:35.017Z,18.20
2022-09-10T13:34:18.005Z,18.00
2022-09-10T13:36:52.985Z,17.70
2022-09-10T13:39:46.293Z,17.70
2022-09-10T13:42:35.612Z,17.60
2022-09-10T13:45:23.737Z,17.50
2022-09-10T13:48:01.059Z,17.40
2022-09-10T13:50:47.011Z,17.30
2022-09-10T13:53:16.041Z,17.20
2022-09-10T13:56:12.332Z,17.30
2022-09-10T13:58:48.538Z,17.30
2022-09-10T14:01:15.755Z,17.40
2022-09-10T14:03:42.608Z,17.90
2022-09-10T14:06:25.181Z,19.20
2022-09-10T14:08:57.136Z,20.10
2022-09-10T14:11:30.427Z,19.90
2022-09-10T14:14:13.132Z,19.50
2022-09-10T14:16:41.272Z,19.30
2022-09-10T14:19:19.075Z,19.00
2022-09-10T14:21:51.803Z,18.90
2022-09-10T14:24:30.248Z,18.70
2022-09-10T14:27:06.236Z,18.60
2022-09-10T14:29:33.161Z,18.60
2022-09-10T14:32:27.942Z,18.60
2022-09-10T14:34:55.078Z,18.40
2022-09-10T14:37:40.183Z,18.40
2022-09-10T14:40:17.910Z,18.50
2022-09-10T14:42:46.142Z,18.50
2022-09-10T14:45:40.533Z,18.40
2022-09-10T14:48:35.672Z,18.50
2022-09-10T14:51:12.690Z,18.40
2022-09-10T14:53:40.891Z,18.50
2022-09-10T14:56:34.104Z,18.50
2022-09-10T14:59:08.470Z,18.40
2022-09-10T15:01:35.567Z,18.40
2022-09-10T15:04:03.508Z,18.20
2022-09-10T15:06:31.749Z,18.30
2022-09-10T15:08:58.640Z,18.20
2022-09-10T15:11:27.901Z,18.60
2022-09-10T15:13:59.830Z,19.60
2022-09-10T15:16:27.696Z,20.70
2022-09-10T15:18:54.629Z,21.20
2022-09-10T15:21:22.339Z,20.00
2022-09-10T15:23:49.131Z,20.00
2022-09-10T15:26:16.059Z,20.00
2022-09-10T15:28:42.878Z,19.70
2022-09-10T15:31:10.479Z,19.70
2022-09-10T15:33:37.601Z,20.10
2022-09-10T15:36:04.996Z,19.90
2022-09-10T15:38:31.849Z,19.70
2022-09-10T15:41:12.604Z,19.30
2022-09-10T15:43:43.089Z,19.10
2022-09-10T15:46:16.187Z,19.20
2022-09-10T15:48:47.467Z,19.40
2022-09-10T15:51:17.471Z,19.50
2022-09-10T15:53:46.047Z,19.60
2022-09-10T15:56:13.438Z,19.60
2022-09-10T15:58:41.184Z,19.50
2022-09-10T16:01:15.106Z,19.30
2022-09-10T16:03:55.396Z,19.40
2022-09-10T16:06:24.254Z,19.40
2022-09-10T16:08:53.199Z,19.30
2022-09-10T16:11:21.597Z,19.30
2022-09-10T16:13:48.421Z,19.30
2022-09-10T16:16:20.972Z,19.30
2022-09-10T16:18:49.183Z,19.40
2022-09-10T16:21:22.526Z,19.30
2022-09-10T16:23:56.841Z,19.20
2022-09-10T16:26:38.753Z,19.30
2022-09-10T16:29:16.756Z,19.10
2022-09-10T16:31:55.274Z,19.00
2022-09-10T16:34:22.587Z,19.10
2022-09-10T16:36:51.425Z,19.00
2022-09-10T16:39:19.745Z,18.90
2022-09-10T16:41:48.504Z,18.80
2022-09-10T16:44:19.207Z,18.70
2022-09-10T16:46:47.240Z,18.70
2022-09-10T16:49:15.479Z,18.70
2022-09-10T16:51:43.512Z,18.70
2022-09-10T16:54:11.949Z,18.60
2022-09-10T16:56:42.254Z,18.60
2022-09-10T16:59:17.772Z,18.60
2022-09-10T17:01:48.365Z,18.60
2022-09-10T17:04:24.605Z,18.50
2022-09-10T17:06:55.368Z,18.30
2022-09-10T17:09:22.679Z,18.40
2022-09-10T17:11:49.484Z,18.50
2022-09-10T17:14:16.309Z,18.50
2022-09-10T17:16:43.840Z,18.50
2022-09-10T17:19:23.654Z,18.40
2022-09-10T17:21:53.071Z,18.30
2022-09-10T17:24:22.514Z,18.30
2022-09-10T17:26:50.665Z,18.20
2022-09-10T17:29:20.577Z,18.30
2022-09-10T17:31:47.960Z,18.30
2022-09-10T17:34:16.377Z,18.40
2022-09-10T17:36:45.515Z,18.30
2022-09-10T17:39:13.234Z,18.30
2022-09-10T17:41:41.147Z,18.20
2022-09-10T17:44:09.378Z,18.10
2022-09-10T17:46:36.346Z,18.20
2022-09-10T17:49:04.275Z,18.20
2022-09-10T17:51:33.795Z,18.20
2022-09-10T17:54:02.607Z,18.10
2022-09-10T17:56:30.002Z,18.10
2022-09-10T17:59:02.673Z,18.00
2022-09-10T18:01:39.993Z,18.00
2022-09-10T18:04:08.756Z,18.00
2022-09-10T18:06:36.547Z,18.10
2022-09-10T18:09:04.618Z,18.00
2022-09-10T18:11:34.747Z,18.00
2022-09-10T18:14:01.830Z,17.90
2022-09-10T18:16:32.207Z,18.00
2022-09-10T18:19:08.168Z,18.00
2022-09-10T18:21:38.286Z,17.90
2022-09-10T18:24:12.547Z,17.80
2022-09-10T18:26:42.734Z,17.80
2022-09-10T18:29:14.342Z,17.80
2022-09-10T18:31:46.654Z,17.70
2022-09-10T18:34:22.083Z,17.70
2022-09-10T18:36:53.242Z,17.70
2022-09-10T18:39:20.747Z,17.70
2022-09-10T18:41:47.868Z,17.70
2022-09-10T18:44:24.527Z,17.70
2022-09-10T18:46:53.372Z,17.70
2022-09-10T18:49:24.924Z,17.70
2022-09-10T18:51:57.396Z,17.60
2022-09-10T18:54:25.763Z,17.60
2022-09-10T18:56:53.476Z,17.50
2022-09-10T18:59:23.354Z,17.40
2022-09-10T19:01:52.454Z,17.50
2022-09-10T19:04:22.369Z,17.40
2022-09-10T19:06:50.024Z,17.40
2022-09-10T19:09:22.488Z,17.40
2022-09-10T19:11:52.045Z,17.40
2022-09-10T19:14:34.960Z,17.30
2022-09-10T19:17:04.594Z,17.30
2022-09-10T19:19:35.130Z,17.30
2022-09-10T19:22:06.370Z,17.30
2022-09-10T19:27:26.121Z,17.20
2022-09-10T19:29:55.080Z,17.20
2022-09-10T19:32:25.559Z,17.30
2022-09-10T19:34:53.136Z,17.10
2022-09-10T19:37:21.793Z,17.10
2022-09-10T19:39:48.984Z,17.20
2022-09-10T19:42:16.530Z,17.10
2022-09-10T19:44:43.879Z,17.20
2022-09-10T19:47:11.691Z,17.10
2022-09-10T19:49:39.314Z,17.20
2022-09-10T19:52:06.624Z,17.10
2022-09-10T19:54:33.751Z,17.10
2022-09-10T19:57:02.146Z,17.10
2022-09-10T19:59:29.263Z,17.20
2022-09-10T20:01:56.948Z,17.10
2022-09-10T20:04:25.898Z,17.00
2022-09-10T20:06:52.894Z,17.10
2022-09-10T20:09:20.925Z,17.10
2022-09-10T20:11:49.204Z,17.00
2022-09-10T20:14:16.208Z,17.00
2022-09-10T20:16:46.019Z,17.00
2022-09-10T20:19:22.431Z,17.00
2022-09-10T20:21:57.230Z,17.10
2022-09-10T20:24:24.728Z,17.10
2022-09-10T20:26:59.360Z,17.10
2022-09-10T20:29:26.736Z,17.00
2022-09-10T20:31:54.517Z,17.10
2022-09-10T20:34:23.159Z,16.90
2022-09-10T20:36:54.884Z,17.00
2022-09-10T20:39:26.104Z,16.90
2022-09-10T20:41:55.126Z,17.00
2022-09-10T20:44:25.303Z,16.90
2022-09-10T20:46:57.485Z,16.90
2022-09-10T20:49:35.148Z,16.90
2022-09-10T20:52:02.532Z,16.80
2022-09-10T20:54:30.425Z,16.80
2022-09-10T20:57:09.440Z,16.70
2022-09-10T20:59:37.583Z,16.60
2022-09-10T21:02:04.920Z,16.70
2022-09-10T21:04:34.064Z,16.70
2022-09-10T21:07:01.076Z,16.70
2022-09-10T21:09:28.280Z,16.70
2022-09-10T21:11:55.254Z,16.70
2022-09-10T21:14:22.246Z,16.70
2022-09-10T21:16:52.246Z,16.70
2022-09-10T21:19:19.790Z,16.60
2022-09-10T21:21:49.130Z,16.60
2022-09-10T21:24:19.128Z,16.60
2022-09-10T21:26:46.823Z,16.70
2022-09-10T21:29:15.685Z,16.70
2022-09-10T21:31:43.078Z,16.60
2022-09-10T21:34:10.205Z,16.60
2022-09-10T21:36:39.427Z,16.60
2022-09-10T21:39:14.732Z,16.50
2022-09-10T21:41:51.107Z,16.50
2022-09-10T21:44:27.933Z,16.60
2022-09-10T21:46:55.772Z,16.50
2022-09-10T21:49:22.700Z,16.50
2022-09-10T21:51:53.796Z,16.50
2022-09-10T21:54:22.250Z,16.50
2022-09-10T21:59:27.583Z,16.50
2022-09-10T22:01:54.666Z,16.60
2022-09-10T22:04:23.191Z,16.60
2022-09-10T22:06:54.428Z,16.50
2022-09-10T22:09:21.628Z,16.50
2022-09-10T22:11:51.352Z,16.60
2022-09-10T22:14:21.463Z,16.70
2022-09-10T22:16:48.706Z,16.70
2022-09-10T22:19:19.099Z,16.70
2022-09-10T22:21:46.412Z,16.60
2022-09-10T22:24:14.762Z,16.60
2022-09-10T22:26:43.987Z,16.50
2022-09-10T22:29:12.595Z,16.50
2022-09-10T22:31:39.438Z,16.50
2022-09-10T22:34:09.963Z,16.50
2022-09-10T22:36:39.003Z,16.60
2022-09-10T22:39:12.462Z,16.60
2022-09-10T22:41:39.714Z,16.60
2022-09-10T22:44:06.879Z,16.60
2022-09-10T22:46:34.837Z,16.60
2022-09-10T22:49:01.796Z,16.50
2022-09-10T22:51:31.801Z,16.50
2022-09-10T22:53:58.684Z,16.60
2022-09-10T22:56:26.840Z,16.50
2022-09-10T22:58:56.383Z,16.50
2022-09-10T23:01:31.929Z,16.50
2022-09-10T23:04:00.326Z,16.50
2022-09-10T23:06:29.545Z,16.40
2022-09-10T23:09:01.915Z,16.50
2022-09-10T23:11:30.990Z,16.40
2022-09-10T23:14:01.631Z,16.50
2022-09-10T23:16:29.681Z,16.40
2022-09-10T23:18:58.828Z,16.40
2022-09-10T23:21:27.505Z,16.40
2022-09-10T23:23:56.757Z,16.50
2022-09-10T23:26:25.909Z,16.50
2022-09-10T23:28:54.780Z,16.40
2022-09-10T23:31:29.400Z,16.40
2022-09-10T23:33:58.218Z,16.40
2022-09-10T23:36:31.391Z,16.30
2022-09-10T23:39:03.599Z,16.30
2022-09-10T23:41:30.370Z,16.30
2022-09-10T23:43:57.384Z,16.30
2022-09-10T23:46:25.089Z,16.30
2022-09-10T23:48:51.994Z,16.30
2022-09-10T23:51:20.604Z,16.20
2022-09-10T23:53:48.852Z,16.20
2022-09-10T23:56:18.368Z,16.20
2022-09-10T23:58:45.436Z,16.20
